createdAt,value
2019-01-28T00:21:36.924Z,18.52
2019-01-28T00:27:18.669Z,19.67
2019-01-28T00:36:35.688Z,18.20
2019-01-28T00:38:45.473Z,17.15
2019-01-28T00:40:51.691Z,17.80
2019-01-28T00:43:00.755Z,18.27
2019-01-28T00:45:10.715Z,17.42
2019-01-28T00:47:19.485Z,18.25
2019-01-28T00:49:25.195Z,17.75
2019-01-28T00:51:33.296Z,17.85
2019-01-28T00:53:38.880Z,19.85
2019-01-28T00:55:44.321Z,17.87
2019-01-28T00:57:57.826Z,17.75
2019-01-28T01:00:03.705Z,17.48
2019-01-28T01:02:14.774Z,18.65
2019-01-28T01:04:28.431Z,19.55
2019-01-28T01:06:34.137Z,17.30
2019-01-28T01:08:40.037Z,20.37
2019-01-28T01:10:46.643Z,19.52
2019-01-28T01:12:52.445Z,19.85
2019-01-28T01:14:58.070Z,18.75
2019-01-28T01:17:03.866Z,18.57
2019-01-28T01:19:09.509Z,20.12
2019-01-28T01:21:14.998Z,17.60
2019-01-28T01:23:26.889Z,18.98
2019-01-28T01:25:32.690Z,19.73
2019-01-28T01:27:38.270Z,18.75
2019-01-28T01:29:50.304Z,19.00
2019-01-28T01:31:56.753Z,19.35
2019-01-28T01:34:02.373Z,17.48
2019-01-28T01:36:08.097Z,18.27
2019-01-28T01:38:15.609Z,18.42
2019-01-28T01:40:21.198Z,18.77
2019-01-28T01:42:29.255Z,22.02
2019-01-28T01:44:34.876Z,22.10
2019-01-28T01:46:40.591Z,22.52
2019-01-28T01:48:46.316Z,22.13
2019-01-28T01:50:53.155Z,20.32
2019-01-28T01:52:59.044Z,22.58
2019-01-28T01:55:05.762Z,20.92
2019-01-28T01:57:11.377Z,18.82
2019-01-28T01:59:18.119Z,20.02
2019-01-28T02:01:23.814Z,20.08
2019-01-28T02:03:29.925Z,18.20
2019-01-28T02:05:35.487Z,21.23
2019-01-28T02:07:47.194Z,23.27
2019-01-28T02:09:52.823Z,22.50
2019-01-28T02:11:58.877Z,20.85
2019-01-28T02:14:05.098Z,19.80
2019-01-28T02:16:10.777Z,20.52
2019-01-28T02:18:19.121Z,23.30
2019-01-28T02:20:24.704Z,22.58
2019-01-28T02:22:30.490Z,23.25
2019-01-28T02:24:36.553Z,21.30
2019-01-28T02:26:42.287Z,21.00
2019-01-28T02:28:47.942Z,18.65
2019-01-28T02:30:53.649Z,23.65
2019-01-28T02:33:02.953Z,22.70
2019-01-28T02:35:08.952Z,22.02
2019-01-28T02:37:14.755Z,18.82
2019-01-28T02:39:20.461Z,19.30
2019-01-28T02:41:26.349Z,20.97
2019-01-28T02:43:32.013Z,21.77
2019-01-28T02:45:40.603Z,20.27
2019-01-28T02:47:46.218Z,23.10
2019-01-28T02:49:52.159Z,21.25
2019-01-28T02:51:57.820Z,23.95
2019-01-28T02:54:03.476Z,23.30
2019-01-28T02:56:10.236Z,22.25
2019-01-28T02:58:16.642Z,22.67
2019-01-28T03:00:33.770Z,21.70
2019-01-28T03:02:39.709Z,20.37
2019-01-28T03:04:45.381Z,20.23
2019-01-28T03:06:51.114Z,19.65
2019-01-28T03:08:58.213Z,18.73
2019-01-28T03:11:03.972Z,23.80
2019-01-28T03:13:09.768Z,20.80
2019-01-28T03:15:16.535Z,20.97
2019-01-28T03:17:22.673Z,21.07
2019-01-28T03:19:28.219Z,19.73
2019-01-28T03:21:40.481Z,20.10
2019-01-28T03:23:46.169Z,18.12
2019-01-28T03:25:51.694Z,20.92
2019-01-28T03:27:58.362Z,22.35
2019-01-28T03:30:04.818Z,21.65
2019-01-28T03:32:11.004Z,21.00
2019-01-28T03:34:16.647Z,21.35
2019-01-28T03:36:22.756Z,20.40
2019-01-28T03:38:28.823Z,17.50
2019-01-28T03:40:35.077Z,20.57
2019-01-28T03:42:46.352Z,22.25
2019-01-28T03:44:52.417Z,20.48
2019-01-28T03:46:58.440Z,20.02
2019-01-28T03:49:07.265Z,21.87
2019-01-28T03:51:13.047Z,20.75
2019-01-28T03:53:21.132Z,19.90
2019-01-28T03:55:26.932Z,21.57
2019-01-28T03:57:35.647Z,22.30
2019-01-28T03:59:43.095Z,20.62
2019-01-28T04:01:51.732Z,21.05
2019-01-28T04:04:08.655Z,19.62
2019-01-28T04:06:14.680Z,18.70
2019-01-28T04:08:22.430Z,21.80
2019-01-28T04:24:52.988Z,18.87
2019-01-28T04:26:59.035Z,17.15
2019-01-28T04:29:04.824Z,17.87
2019-01-28T04:31:14.898Z,17.90
2019-01-28T04:33:22.486Z,16.90
2019-01-28T04:35:28.763Z,19.07
2019-01-28T04:37:41.423Z,19.05
2019-01-28T04:39:48.935Z,16.93
2019-01-28T04:41:54.349Z,20.30
2019-01-28T04:44:06.553Z,20.97
2019-01-28T04:46:12.243Z,18.50
2019-01-28T04:48:17.654Z,18.00
2019-01-28T04:50:23.397Z,16.37
2019-01-28T04:52:29.369Z,14.58
2019-01-28T04:54:34.837Z,15.68
2019-01-28T04:56:40.337Z,18.55
2019-01-28T04:58:45.800Z,16.80
2019-01-28T05:00:52.257Z,14.73
2019-01-28T05:03:00.279Z,14.38
2019-01-28T05:05:06.532Z,12.95
2019-01-28T05:07:11.971Z,13.68
2019-01-28T05:09:24.010Z,13.85
2019-01-28T05:11:29.582Z,13.03
2019-01-28T05:13:35.118Z,16.02
2019-01-28T05:15:41.514Z,17.82
2019-01-28T05:17:47.196Z,16.67
2019-01-28T05:19:53.203Z,16.00
2019-01-28T05:22:02.194Z,15.60
2019-01-28T05:24:07.881Z,15.05
2019-01-28T05:26:13.689Z,15.25
2019-01-28T05:28:26.468Z,14.15
2019-01-28T05:30:32.003Z,15.95
2019-01-28T05:32:37.721Z,15.20
2019-01-28T05:34:43.437Z,15.63
2019-01-28T05:36:49.527Z,16.52
2019-01-28T05:38:54.963Z,16.48
2019-01-28T05:41:02.181Z,15.58
2019-01-28T05:43:07.602Z,16.52
2019-01-28T05:45:14.305Z,16.35
2019-01-28T05:47:21.698Z,14.45
2019-01-28T05:49:27.392Z,16.00
2019-01-28T05:51:32.857Z,17.00
2019-01-28T05:53:40.118Z,16.05
2019-01-28T05:55:45.605Z,20.25
2019-01-28T05:57:51.590Z,20.88
2019-01-28T05:59:59.158Z,20.85
2019-01-28T06:02:04.798Z,15.60
2019-01-28T06:04:10.465Z,17.15
2019-01-28T06:06:16.722Z,18.95
2019-01-28T06:08:36.182Z,18.77
2019-01-28T06:10:42.033Z,15.83
2019-01-28T06:12:57.689Z,15.38
2019-01-28T06:15:07.251Z,14.75
2019-01-28T06:17:23.248Z,16.60
2019-01-28T06:19:31.411Z,18.48
2019-01-28T06:21:49.223Z,15.15
2019-01-28T06:24:01.018Z,16.25
2019-01-28T06:26:16.495Z,16.85
2019-01-28T06:28:28.427Z,18.32
2019-01-28T06:30:45.885Z,16.90
2019-01-28T06:33:08.113Z,15.25
2019-01-28T06:35:22.773Z,17.98
2019-01-28T06:37:55.493Z,18.50
2019-01-28T06:40:01.297Z,16.05
2019-01-28T06:42:10.484Z,20.72
2019-01-28T06:44:19.699Z,15.60
2019-01-28T06:46:25.272Z,15.63
2019-01-28T06:48:31.056Z,20.02
2019-01-28T06:50:39.794Z,19.50
2019-01-28T06:52:45.787Z,20.17
2019-01-28T06:54:51.423Z,18.90
2019-01-28T06:57:02.139Z,20.68
2019-01-28T06:59:14.187Z,19.05
2019-01-28T07:01:29.467Z,18.77
2019-01-28T07:03:39.915Z,15.83
2019-01-28T07:05:48.415Z,18.35
2019-01-28T07:07:55.967Z,15.90
2019-01-28T07:10:04.247Z,16.35
2019-01-28T07:12:16.239Z,17.90
2019-01-28T07:14:26.939Z,15.85
2019-01-28T07:16:34.698Z,17.85
2019-01-28T07:18:42.604Z,15.58
2019-01-28T07:21:03.082Z,16.00
2019-01-28T07:23:12.661Z,16.30
2019-01-28T07:25:23.117Z,19.37
2019-01-28T07:27:29.409Z,18.35
2019-01-28T07:29:35.905Z,18.92
2019-01-28T07:31:42.070Z,17.02
2019-01-28T07:33:48.120Z,17.02
2019-01-28T07:35:54.046Z,15.18
2019-01-28T07:38:06.166Z,15.78
2019-01-28T07:40:13.477Z,17.37
2019-01-28T07:42:19.458Z,14.78
2019-01-28T07:44:25.621Z,14.73
2019-01-28T07:46:31.145Z,12.50
2019-01-28T07:48:36.710Z,9.58
2019-01-28T07:50:42.205Z,10.08
2019-01-28T07:52:47.797Z,7.45
2019-01-28T07:54:53.519Z,6.05
2019-01-28T07:56:59.443Z,5.78
2019-01-28T07:59:04.873Z,6.12
2019-01-28T08:01:10.400Z,5.90
2019-01-28T08:03:24.026Z,5.20
2019-01-28T08:05:29.708Z,5.58
2019-01-28T08:07:35.101Z,5.60
2019-01-28T08:09:46.511Z,5.35
2019-01-28T08:11:53.497Z,6.45
2019-01-28T08:13:59.059Z,4.85
2019-01-28T08:16:04.679Z,4.85
2019-01-28T08:18:11.091Z,4.37
2019-01-28T08:20:18.056Z,3.47
2019-01-28T08:22:25.633Z,3.60
2019-01-28T08:24:31.406Z,3.33
2019-01-28T08:26:36.896Z,3.58
2019-01-28T08:28:51.515Z,4.10
2019-01-28T08:30:57.233Z,3.47
2019-01-28T08:33:03.116Z,3.60
2019-01-28T08:35:09.226Z,3.42
2019-01-28T08:37:14.760Z,3.33
2019-01-28T08:39:20.175Z,3.27
2019-01-28T08:41:25.993Z,2.60
2019-01-28T08:43:31.465Z,2.45
2019-01-28T08:45:37.641Z,5.58
2019-01-28T08:47:43.327Z,5.15
2019-01-28T08:49:49.389Z,7.22
2019-01-28T08:51:54.903Z,6.83
2019-01-28T08:54:04.106Z,7.78
2019-01-28T08:56:16.519Z,7.62
2019-01-28T08:58:16.938Z,7.55
2019-01-28T09:00:48.730Z,5.28
2019-01-28T09:02:54.217Z,5.03
2019-01-28T09:05:00.378Z,6.03
2019-01-28T09:07:05.878Z,5.47
2019-01-28T09:09:12.183Z,5.67
2019-01-28T09:11:18.890Z,6.78
2019-01-28T09:13:24.585Z,6.00
2019-01-28T09:15:30.585Z,5.15
2019-01-28T09:17:36.454Z,4.67
2019-01-28T09:19:42.838Z,4.40
2019-01-28T09:21:48.596Z,4.85
2019-01-28T09:24:00.033Z,4.72
2019-01-28T09:26:06.656Z,4.45
2019-01-28T09:28:12.310Z,5.15
2019-01-28T09:30:29.094Z,5.03
2019-01-28T09:32:34.763Z,5.45
2019-01-28T09:34:40.547Z,3.98
2019-01-28T09:36:46.389Z,6.33
2019-01-28T09:38:52.010Z,6.65
2019-01-28T09:40:57.672Z,5.28
2019-01-28T09:43:03.362Z,5.20
2019-01-28T09:45:12.011Z,5.08
2019-01-28T09:47:18.345Z,3.72
2019-01-28T09:49:27.134Z,4.50
2019-01-28T09:51:32.855Z,5.78
2019-01-28T09:53:39.009Z,4.25
2019-01-28T09:55:44.729Z,4.53
2019-01-28T09:57:50.477Z,4.72
2019-01-28T09:59:56.136Z,4.05
2019-01-28T10:02:01.923Z,4.12
2019-01-28T10:04:07.963Z,4.22
2019-01-28T10:06:14.089Z,5.08
2019-01-28T10:08:23.042Z,3.70
2019-01-28T10:10:29.083Z,3.85
2019-01-28T10:12:38.308Z,4.78
2019-01-28T10:14:44.622Z,4.22
2019-01-28T10:16:50.414Z,4.28
2019-01-28T10:18:57.934Z,4.17
2019-01-28T10:21:08.165Z,4.12
2019-01-28T10:23:13.914Z,3.00
2019-01-28T10:25:19.913Z,4.45
2019-01-28T10:27:26.267Z,3.70
2019-01-28T10:29:35.070Z,4.20
2019-01-28T10:31:40.722Z,3.50
2019-01-28T10:34:01.755Z,3.35
2019-01-28T10:36:07.686Z,3.37
2019-01-28T10:38:13.229Z,3.27
2019-01-28T10:40:21.690Z,3.00
2019-01-28T10:42:28.835Z,3.65
2019-01-28T10:44:38.760Z,3.37
2019-01-28T10:46:45.725Z,2.08
2019-01-28T10:48:52.833Z,2.25
2019-01-28T10:50:58.464Z,2.90
2019-01-28T10:53:05.869Z,2.15
2019-01-28T10:55:11.917Z,2.45
2019-01-28T10:57:17.713Z,2.15
2019-01-28T10:59:23.287Z,2.10
2019-01-28T11:01:29.076Z,3.05
2019-01-28T11:03:34.849Z,2.15
2019-01-28T11:05:59.659Z,1.80
2019-01-28T11:08:06.153Z,1.70
2019-01-28T11:10:12.797Z,1.80
2019-01-28T11:12:22.041Z,1.70
2019-01-28T11:14:29.431Z,1.90
2019-01-28T11:16:34.960Z,2.45
2019-01-28T11:18:42.288Z,1.80
2019-01-28T11:20:47.765Z,1.62
2019-01-28T11:22:53.483Z,1.65
2019-01-28T11:24:59.168Z,1.40
2019-01-28T11:27:05.528Z,1.77
2019-01-28T11:29:11.812Z,2.00
2019-01-28T11:31:17.331Z,1.55
2019-01-28T11:33:23.044Z,1.67
2019-01-28T11:35:30.182Z,1.75
2019-01-28T11:37:35.788Z,1.85
2019-01-28T11:39:43.061Z,2.40
2019-01-28T11:41:48.506Z,1.90
2019-01-28T11:43:55.575Z,1.40
2019-01-28T11:46:03.388Z,2.80
2019-01-28T11:48:09.201Z,2.40
2019-01-28T11:50:16.259Z,2.75
2019-01-28T11:52:24.724Z,3.00
2019-01-28T11:54:49.227Z,4.03
2019-01-28T11:57:35.506Z,3.30
2019-01-28T11:59:49.111Z,3.95
2019-01-28T12:01:57.161Z,4.10
2019-01-28T12:04:03.013Z,3.05
2019-01-28T12:06:09.073Z,4.05
2019-01-28T12:08:23.271Z,3.10
2019-01-28T12:10:34.959Z,3.42
2019-01-28T12:13:05.011Z,3.00
2019-01-28T12:15:13.810Z,4.12
2019-01-28T12:17:19.812Z,3.40
2019-01-28T12:19:27.847Z,3.40
2019-01-28T12:21:34.075Z,3.15
2019-01-28T12:23:43.257Z,2.65
2019-01-28T12:25:49.100Z,5.47
2019-01-28T12:27:54.825Z,6.17
2019-01-28T12:30:03.254Z,5.35
2019-01-28T12:32:09.125Z,6.72
2019-01-28T12:34:15.514Z,6.85
2019-01-28T12:36:21.410Z,6.25
2019-01-28T12:38:32.343Z,7.33
2019-01-28T12:40:39.311Z,6.65
2019-01-28T12:42:45.469Z,6.80
2019-01-28T12:44:51.393Z,6.22
2019-01-28T12:46:57.108Z,6.80
2019-01-28T12:49:08.582Z,6.30
2019-01-28T12:51:14.827Z,6.45
2019-01-28T12:53:20.275Z,5.42
2019-01-28T12:55:27.347Z,6.28
2019-01-28T12:57:34.058Z,6.10
2019-01-28T12:59:40.059Z,5.12
2019-01-28T13:01:45.858Z,5.40
2019-01-28T13:03:52.073Z,4.62
2019-01-28T13:05:57.609Z,4.55
2019-01-28T13:08:03.178Z,4.30
2019-01-28T13:10:11.182Z,5.45
2019-01-28T13:12:17.016Z,5.20
2019-01-28T13:14:24.906Z,4.10
2019-01-28T13:16:31.675Z,4.92
2019-01-28T13:18:37.787Z,5.12
2019-01-28T13:20:43.475Z,4.87
2019-01-28T13:22:48.980Z,5.47
2019-01-28T13:24:54.478Z,5.12
2019-01-28T13:27:06.766Z,4.60
2019-01-28T13:29:13.278Z,5.42
2019-01-28T13:31:18.827Z,4.58
2019-01-28T13:33:28.545Z,5.45
2019-01-28T13:35:34.282Z,5.15
2019-01-28T13:37:43.594Z,4.75
2019-01-28T13:39:54.723Z,4.70
2019-01-28T13:42:00.173Z,4.30
2019-01-28T13:44:05.653Z,4.55
2019-01-28T13:46:18.053Z,5.15
2019-01-28T13:48:25.677Z,4.53
2019-01-28T13:50:31.238Z,5.05
2019-01-28T13:52:40.798Z,4.45
2019-01-28T13:54:46.277Z,4.55
2019-01-28T13:56:51.991Z,5.03
2019-01-28T13:58:58.149Z,4.95
2019-01-28T14:01:04.068Z,4.42
2019-01-28T14:03:09.726Z,5.17
2019-01-28T14:05:15.578Z,5.25
2019-01-28T14:07:21.405Z,4.55
2019-01-28T14:09:26.880Z,4.55
2019-01-28T14:11:32.601Z,5.58
2019-01-28T14:13:38.022Z,4.30
2019-01-28T14:15:43.529Z,3.30
2019-01-28T14:17:49.402Z,3.60
2019-01-28T14:19:54.865Z,5.10
2019-01-28T14:22:00.512Z,5.08
2019-01-28T14:24:06.435Z,5.62
2019-01-28T14:26:11.894Z,4.12
2019-01-28T14:28:17.438Z,4.33
2019-01-28T14:30:29.337Z,3.83
2019-01-28T14:32:36.806Z,3.30
2019-01-28T14:34:42.266Z,2.92
2019-01-28T14:36:47.988Z,3.95
2019-01-28T14:38:54.670Z,3.70
2019-01-28T14:41:00.339Z,4.67
2019-01-28T14:43:06.094Z,5.80
2019-01-28T14:45:13.150Z,4.37
2019-01-28T14:47:18.743Z,4.05
2019-01-28T14:49:24.334Z,4.37
2019-01-28T14:51:36.211Z,3.80
2019-01-28T14:53:41.690Z,4.42
2019-01-28T14:55:47.226Z,4.05
2019-01-28T14:57:53.758Z,3.60
2019-01-28T14:59:59.259Z,3.50
2019-01-28T15:02:05.046Z,2.95
2019-01-28T15:04:10.749Z,2.40
2019-01-28T15:06:17.493Z,2.95
2019-01-28T15:08:23.272Z,2.12
2019-01-28T15:10:33.129Z,3.05
2019-01-28T15:12:44.253Z,2.72
2019-01-28T15:14:47.514Z,2.05
2019-01-28T15:16:52.948Z,2.62
2019-01-28T15:18:58.895Z,2.42
2019-01-28T15:21:04.347Z,2.58
2019-01-28T15:23:10.795Z,3.15
2019-01-28T15:25:16.682Z,3.42
2019-01-28T15:27:22.834Z,3.20
2019-01-28T15:34:25.019Z,1.90
2019-01-28T15:36:31.641Z,1.90
2019-01-28T15:38:37.099Z,1.90
2019-01-28T15:40:45.992Z,2.45
2019-01-28T15:42:51.733Z,2.65
2019-01-28T15:44:57.210Z,3.20
2019-01-28T15:47:02.751Z,2.52
2019-01-28T15:49:11.166Z,2.10
2019-01-28T15:51:16.591Z,2.92
2019-01-28T15:53:22.178Z,2.87
2019-01-28T15:55:30.495Z,2.80
2019-01-28T15:57:36.327Z,2.85
2019-01-28T15:59:42.210Z,5.20
2019-01-28T16:01:51.390Z,4.47
2019-01-28T16:03:59.330Z,4.80
2019-01-28T16:06:05.097Z,4.45
2019-01-28T16:08:15.211Z,5.05
2019-01-28T16:10:22.562Z,4.90
2019-01-28T16:12:42.789Z,5.28
2019-01-28T16:30:29.821Z,4.22
2019-01-28T17:56:19.033Z,15.20
2019-01-28T17:58:26.050Z,14.28
2019-01-28T18:00:42.115Z,14.43
2019-01-28T18:02:49.772Z,15.10
2019-01-28T18:04:55.611Z,15.68
2019-01-28T18:07:03.238Z,14.95
2019-01-28T18:09:09.931Z,13.90
2019-01-28T18:11:17.331Z,13.98
2019-01-28T18:13:24.473Z,14.00
2019-01-28T18:15:30.001Z,15.28
2019-01-28T18:17:35.961Z,13.93
2019-01-28T18:19:41.898Z,14.15
2019-01-28T18:21:48.796Z,15.83
2019-01-28T18:23:55.406Z,14.68
2019-01-28T18:26:00.874Z,13.85
2019-01-28T18:29:08.202Z,13.72
2019-01-28T18:30:48.893Z,14.80
2019-01-28T18:32:54.506Z,13.80
2019-01-28T18:35:00.004Z,15.83
2019-01-28T18:37:11.429Z,18.27
2019-01-28T18:39:17.195Z,18.65
2019-01-28T18:41:23.086Z,20.25
2019-01-28T18:43:29.049Z,21.62
2019-01-28T18:45:34.604Z,17.55
2019-01-28T18:47:40.429Z,16.45
2019-01-28T18:49:46.093Z,18.45
2019-01-28T18:51:51.620Z,20.25
2019-01-28T18:53:59.030Z,21.55
2019-01-28T18:56:04.703Z,21.65
2019-01-28T18:58:10.398Z,19.77
2019-01-28T19:00:19.069Z,22.05
2019-01-28T19:02:25.305Z,21.12
2019-01-28T19:04:31.457Z,20.25
2019-01-28T19:06:54.785Z,20.90
2019-01-28T19:09:14.529Z,21.17
2019-01-28T19:11:41.866Z,20.30
2019-01-28T19:14:21.926Z,20.20
2019-01-28T19:16:35.387Z,16.90
2019-01-28T19:19:02.313Z,21.55
2019-01-28T19:21:27.607Z,17.95
2019-01-28T19:23:33.580Z,20.77
2019-01-28T19:25:39.294Z,19.15
2019-01-28T19:27:44.990Z,21.50
2019-01-28T19:29:50.458Z,22.15
2019-01-28T19:31:55.942Z,22.82
2019-01-28T19:34:05.049Z,24.80
2019-01-28T19:36:10.710Z,24.65
2019-01-28T19:38:16.147Z,20.50
2019-01-28T19:40:23.545Z,24.52
2019-01-28T19:42:29.236Z,24.87
2019-01-28T19:44:34.990Z,23.67
2019-01-28T19:46:40.441Z,31.48
2019-01-28T19:48:46.905Z,24.18
2019-01-28T19:50:54.003Z,21.90
2019-01-28T19:53:02.091Z,24.85
2019-01-28T19:55:09.354Z,24.05
2019-01-28T19:57:14.925Z,24.20
2019-01-28T19:59:30.989Z,25.05
2019-01-28T20:01:36.598Z,21.93
2019-01-28T20:03:42.106Z,24.02
2019-01-28T20:05:47.909Z,26.17
2019-01-28T20:07:53.407Z,24.18
2019-01-28T20:09:59.142Z,27.55
2019-01-28T20:12:05.076Z,24.27
2019-01-28T20:14:10.685Z,22.90
2019-01-28T20:16:18.151Z,24.20
2019-01-28T20:18:23.751Z,21.48
2019-01-28T20:20:29.466Z,23.18
2019-01-28T20:22:35.289Z,23.40
2019-01-28T20:24:41.037Z,22.22
2019-01-28T20:26:47.389Z,23.18
2019-01-28T20:28:53.200Z,21.15
2019-01-28T20:30:58.897Z,20.43
2019-01-28T20:33:04.705Z,22.98
2019-01-28T20:35:10.738Z,24.18
2019-01-28T20:37:16.286Z,22.67
2019-01-28T20:39:22.213Z,17.50
2019-01-28T20:41:27.755Z,18.32
2019-01-28T20:43:39.017Z,19.67
2019-01-28T20:45:45.080Z,21.10
2019-01-28T20:47:51.098Z,20.37
2019-01-28T20:49:57.621Z,21.25
2019-01-28T20:52:03.474Z,20.37
2019-01-28T20:54:09.104Z,18.50
2019-01-28T20:56:15.034Z,19.60
2019-01-28T20:58:20.647Z,18.37
2019-01-28T21:00:30.249Z,18.60
2019-01-28T21:02:37.769Z,20.90
2019-01-28T21:04:43.466Z,19.85
2019-01-28T21:06:49.109Z,20.50
2019-01-28T21:09:00.973Z,24.20
2019-01-28T21:11:06.901Z,25.77
2019-01-28T21:13:13.052Z,23.07
2019-01-28T21:15:20.323Z,22.60
2019-01-28T21:17:25.838Z,21.70
2019-01-28T21:19:31.713Z,21.75
2019-01-28T21:21:42.025Z,22.25
2019-01-28T21:23:45.162Z,21.75
2019-01-28T21:25:50.858Z,19.90
2019-01-28T21:27:59.169Z,21.60
2019-01-28T21:30:08.758Z,20.88
2019-01-28T21:32:14.293Z,19.07
2019-01-28T21:34:23.160Z,22.00
2019-01-28T21:36:43.563Z,23.02
2019-01-28T21:38:50.934Z,21.15
2019-01-28T21:40:58.516Z,20.27
2019-01-28T21:43:04.162Z,19.07
2019-01-28T21:45:10.413Z,18.87
2019-01-28T21:47:16.439Z,22.98
2019-01-28T21:49:21.962Z,22.00
2019-01-28T21:51:27.422Z,21.37
2019-01-28T21:53:33.957Z,20.05
2019-01-28T21:55:39.933Z,19.23
2019-01-28T21:57:45.380Z,22.02
2019-01-28T21:59:53.626Z,21.00
2019-01-28T22:01:59.195Z,22.22
2019-01-28T22:04:05.113Z,19.98
2019-01-28T22:06:10.902Z,23.95
2019-01-28T22:08:16.454Z,21.62
2019-01-28T22:10:22.036Z,21.48
2019-01-28T22:12:30.596Z,20.45
2019-01-28T22:14:36.207Z,23.47
2019-01-28T22:16:43.275Z,25.80
2019-01-28T22:18:52.697Z,26.20
2019-01-28T22:20:59.483Z,24.90
2019-01-28T22:23:04.979Z,20.02
2019-01-28T22:25:12.532Z,22.25
2019-01-28T22:27:18.174Z,23.47
2019-01-28T22:29:24.531Z,22.52
2019-01-28T22:31:30.568Z,23.95
2019-01-28T22:33:36.598Z,21.10
2019-01-28T22:35:42.350Z,19.67
2019-01-28T22:37:55.758Z,18.52
2019-01-28T22:40:01.855Z,21.50
2019-01-28T22:42:07.759Z,22.80
2019-01-28T22:44:13.714Z,23.25
2019-01-28T22:46:19.454Z,22.75
2019-01-28T22:48:26.997Z,22.65
2019-01-28T22:50:34.940Z,22.05
2019-01-28T22:52:40.500Z,22.62
2019-01-28T22:54:46.241Z,20.60
2019-01-28T22:56:52.966Z,18.35
2019-01-28T22:59:03.283Z,18.90
2019-01-28T23:01:18.521Z,21.55
2019-01-28T23:03:32.943Z,18.85
2019-01-28T23:05:41.590Z,18.17
2019-01-28T23:07:47.989Z,17.67
2019-01-28T23:09:54.437Z,17.17
2019-01-28T23:12:04.565Z,21.27
2019-01-28T23:14:13.614Z,19.80
2019-01-28T23:16:22.623Z,18.20
2019-01-28T23:18:29.646Z,18.92
2019-01-28T23:20:35.305Z,20.27
2019-01-28T23:22:44.785Z,18.30
2019-01-28T23:24:52.732Z,19.35
2019-01-28T23:27:01.754Z,20.62
2019-01-28T23:29:09.273Z,20.25
2019-01-28T23:31:15.141Z,18.82
2019-01-28T23:33:20.790Z,17.90
2019-01-28T23:35:26.720Z,17.90
2019-01-28T23:37:33.049Z,19.98
2019-01-28T23:39:37.762Z,19.50
2019-01-28T23:41:45.186Z,19.12
2019-01-28T23:43:52.293Z,20.50
2019-01-28T23:45:58.248Z,18.98
2019-01-28T23:48:05.182Z,20.60
2019-01-28T23:50:12.911Z,18.62
2019-01-28T23:52:25.112Z,21.68
2019-01-28T23:54:27.572Z,18.48
2019-01-28T23:56:35.106Z,20.60
2019-01-28T23:58:40.843Z,19.95
